Weather History for K5H4 - November, 2012

Change the Weather History Date:

Thursday, November 8, 2012

  Actual Average (KRUG) Record (KRUG)
Temperature  
Mean Temperature 34 °F -  
Max Temperature 44 °F 37 °F 57 °F (1978)
Min Temperature 24 °F 21 °F 1 °F (1973)
Degree Days  
Heating Degree Days 31    
Moisture  
Dew Point 31 °F    
Average Humidity 88    
Maximum Humidity 100    
Minimum Humidity 75    
Precipitation  
Precipitation 0.00 in - - ()
Sea Level Pressure  
Sea Level Pressure 30.01 in    
Wind  
Wind Speed 14 mph (North)    
Max Wind Speed 25 mph    
Max Gust Speed 33 mph    
Visibility 10 miles    
Events      
Averages and records for this station are not official NWS values.
T = Trace of Precipitation, MM = Missing Value Source: NWS Daily Summary

Daily Weather History Graph

Daily Weather History Graph

Search for Another Location

Airport or City:

Trip Planner

Search our weather history database for the weather conditions in past years. The results will help you decide how hot, cold, wet, or windy it might be!

Date:

Astronomy

Nov. 08, 2012 Rise Set
Actual Time 7:35 AM CST 5:10 PM CST
Civil Twilight 7:02 AM CST 5:43 PM CST
Nautical Twilight 6:25 AM CST 6:20 PM CST
Astronomical Twilight 5:49 AM CST 6:56 PM CST
Moon 1:07 AM CST (11/8) 2:14 PM CST (11/8)
Length of Visible Light 10h 41m
Length of Day
9h 35m
Waning Crescent, 32% of the Moon is Illuminated
Nov 8
Waning Crescent
Nov 13
New
Nov 20
First Quarter
Nov 28
Full
Dec 6
Last Quarter

Hourly Weather History & Observations

Time (CST) Temp. Windchill Dew Point Humidity Pressure Visibility Wind Dir Wind Speed Gust Speed Precip Events Conditions
12:15 AM 35.6 °F 28.6 °F 32.0 °F 87% 29.72 in 10.0 mi WSW 9.2 mph - N/A   Clear
12:35 AM 35.6 °F 28.0 °F 32.0 °F 87% 29.71 in 10.0 mi WSW 10.4 mph - N/A   Clear
12:55 AM 35.6 °F 28.6 °F 32.0 °F 87% 29.73 in 10.0 mi SW 9.2 mph - N/A   Clear
1:15 AM 35.6 °F 29.2 °F 32.0 °F 87% 29.73 in 10.0 mi West 8.1 mph - N/A   Scattered Clouds
1:35 AM 39.2 °F 33.6 °F 35.6 °F 87% 29.75 in 10.0 mi West 8.1 mph - N/A   Mostly Cloudy
1:55 AM 41.0 °F 36.4 °F 35.6 °F 81% 29.74 in 10.0 mi WNW 6.9 mph - N/A   Partly Cloudy
2:15 AM 41.0 °F 35.2 °F 37.4 °F 87% 29.77 in 10.0 mi WNW 9.2 mph - N/A   Clear
2:35 AM 41.0 °F 35.2 °F 37.4 °F 87% 29.77 in 10.0 mi WNW 9.2 mph - N/A   Partly Cloudy
2:55 AM 42.8 °F 37.5 °F 37.4 °F 81% 29.75 in 10.0 mi NW 9.2 mph - N/A   Clear
3:15 AM 44.6 °F 37.4 °F 41.0 °F 87% 29.78 in 10.0 mi WNW 16.1 mph - N/A   Mostly Cloudy
3:35 AM 41.0 °F 34.3 °F 39.2 °F 93% 29.79 in 10.0 mi WNW 11.5 mph 25.3 mph N/A   Mostly Cloudy
3:55 AM 41.0 °F 33.1 °F 37.4 °F 87% 29.81 in 10.0 mi WNW 15.0 mph 23.0 mph N/A   Scattered Clouds
4:15 AM 41.0 °F 32.5 °F 37.4 °F 87% 29.83 in 10.0 mi WNW 17.3 mph 32.2 mph N/A   Scattered Clouds
4:35 AM 39.2 °F 30.2 °F 35.6 °F 87% 29.82 in 10.0 mi NW 17.3 mph 32.2 mph N/A   Partly Cloudy
4:55 AM 37.4 °F 26.9 °F 35.6 °F 93% 29.84 in 10.0 mi NW 20.7 mph 26.5 mph N/A   Partly Cloudy
5:15 AM 37.4 °F 26.1 °F 35.6 °F 93% 29.85 in 10.0 mi NW 24.2 mph 29.9 mph N/A   Mostly Cloudy
5:35 AM 35.6 °F 24.0 °F 33.8 °F 93% 29.86 in 10.0 mi NW 23.0 mph 29.9 mph N/A   Overcast
5:55 AM 35.6 °F 23.4 °F 33.8 °F 93% 29.88 in 10.0 mi NW 25.3 mph 33.4 mph N/A   Overcast
6:15 AM 35.6 °F 24.8 °F 33.8 °F 93% 29.89 in 10.0 mi NW 19.6 mph 28.8 mph N/A   Overcast
6:35 AM 35.6 °F 24.8 °F 32.0 °F 87% 29.89 in 10.0 mi NW 19.6 mph 29.9 mph N/A   Overcast
6:55 AM 35.6 °F 24.8 °F 33.8 °F 93% 29.91 in 10.0 mi NW 19.6 mph 29.9 mph N/A   Overcast
7:15 AM 35.6 °F 23.4 °F 33.8 °F 93% 29.92 in 10.0 mi NW 25.3 mph 28.8 mph N/A   Overcast
7:35 AM 35.6 °F 25.2 °F 32.0 °F 87% 29.94 in 10.0 mi NW 18.4 mph 23.0 mph N/A   Overcast
7:55 AM 35.6 °F 23.7 °F 32.0 °F 87% 29.95 in 10.0 mi NNW 24.2 mph 27.6 mph N/A   Overcast
8:15 AM 35.6 °F 25.2 °F 32.0 °F 87% 29.97 in 10.0 mi NNW 18.4 mph 24.2 mph N/A   Overcast
8:35 AM 35.6 °F 26.2 °F 32.0 °F 87% 29.98 in 10.0 mi NW 15.0 mph 25.3 mph N/A   Overcast
8:55 AM 35.6 °F 26.6 °F 32.0 °F 87% 30.00 in 10.0 mi NNW 13.8 mph 21.9 mph N/A   Overcast
9:15 AM 35.6 °F 25.9 °F 33.8 °F 93% 30.00 in 10.0 mi NNW 16.1 mph 26.5 mph N/A   Overcast
9:35 AM 35.6 °F 25.5 °F 32.0 °F 87% 30.01 in 10.0 mi NNW 17.3 mph 26.5 mph N/A   Overcast
9:55 AM 35.6 °F 26.2 °F 32.0 °F 87% 30.02 in 10.0 mi North 15.0 mph 25.3 mph N/A   Overcast
10:15 AM 35.6 °F 25.9 °F 32.0 °F 87% 30.03 in 10.0 mi North 16.1 mph - N/A   Overcast
10:35 AM 35.6 °F 25.5 °F 32.0 °F 87% 30.03 in 10.0 mi North 17.3 mph - N/A   Overcast
10:55 AM 35.6 °F 25.9 °F 32.0 °F 87% 30.05 in 10.0 mi North 16.1 mph 21.9 mph N/A   Overcast
11:15 AM 35.6 °F 26.2 °F 32.0 °F 87% 30.06 in 10.0 mi North 15.0 mph 20.7 mph N/A   Overcast
11:35 AM 35.6 °F 25.9 °F 32.0 °F 87% 30.07 in 10.0 mi NNE 16.1 mph - N/A   Overcast
11:55 AM 35.6 °F 25.5 °F 32.0 °F 87% 30.06 in 10.0 mi North 17.3 mph 24.2 mph N/A   Overcast
12:15 PM 35.6 °F 25.2 °F 32.0 °F 87% 30.06 in 10.0 mi North 18.4 mph 24.2 mph N/A   Overcast
12:55 PM 35.6 °F 25.5 °F 32.0 °F 87% 30.07 in 10.0 mi NNE 17.3 mph - N/A   Overcast
1:15 PM 35.6 °F 26.2 °F 30.2 °F 81% 30.07 in 10.0 mi NNE 15.0 mph 20.7 mph N/A   Overcast
1:35 PM 35.6 °F 26.2 °F 30.2 °F 81% 30.08 in 10.0 mi NNE 15.0 mph - N/A   Overcast
1:55 PM 35.6 °F 25.9 °F 32.0 °F 87% 30.08 in 10.0 mi NNE 16.1 mph - N/A   Overcast
2:15 PM 35.6 °F 27.1 °F 30.2 °F 81% 30.09 in 10.0 mi NNE 12.7 mph - N/A   Overcast
2:35 PM 35.6 °F 25.9 °F 28.4 °F 75% 30.09 in 10.0 mi NNE 16.1 mph - N/A   Overcast
2:55 PM 35.6 °F 26.6 °F 28.4 °F 75% 30.09 in 10.0 mi NNE 13.8 mph - N/A   Overcast
3:15 PM 35.6 °F 26.6 °F 28.4 °F 75% 30.10 in 10.0 mi NNE 13.8 mph - N/A   Overcast
3:35 PM 35.6 °F 27.5 °F 28.4 °F 75% 30.10 in 10.0 mi NE 11.5 mph - N/A   Overcast
3:55 PM 35.6 °F 26.2 °F 28.4 °F 75% 30.11 in 10.0 mi NNE 15.0 mph 18.4 mph N/A   Overcast
4:15 PM 33.8 °F 23.5 °F 30.2 °F 87% 30.11 in 10.0 mi NNE 16.1 mph - N/A   Overcast
4:35 PM 32.0 °F 22.1 °F 30.2 °F 93% 30.12 in 10.0 mi NNE 13.8 mph - N/A   Overcast
4:55 PM 32.0 °F 21.6 °F 28.4 °F 87% 30.12 in 10.0 mi NE 15.0 mph - N/A   Overcast
5:15 PM 32.0 °F 22.5 °F 28.4 °F 87% 30.12 in 10.0 mi NE 12.7 mph - N/A   Overcast
5:35 PM 32.0 °F 22.1 °F 28.4 °F 87% 30.12 in 10.0 mi NE 13.8 mph 21.9 mph N/A   Overcast
5:55 PM 32.0 °F 22.5 °F 26.6 °F 80% 30.13 in 10.0 mi NE 12.7 mph 20.7 mph N/A   Overcast
6:15 PM 30.2 °F 19.3 °F 26.6 °F 86% 30.13 in 10.0 mi NE 15.0 mph - N/A   Overcast
6:35 PM 30.2 °F 18.9 °F 26.6 °F 86% 30.13 in 10.0 mi NE 16.1 mph 21.9 mph N/A   Overcast
6:55 PM 30.2 °F 18.5 °F 26.6 °F 86% 30.12 in 10.0 mi NE 17.3 mph 21.9 mph N/A   Overcast
7:15 PM 30.2 °F 20.2 °F 26.6 °F 86% 30.12 in 10.0 mi ENE 12.7 mph - N/A   Overcast
7:35 PM 28.4 °F 17.5 °F 26.6 °F 93% 30.13 in 10.0 mi ENE 13.8 mph 19.6 mph N/A   Overcast
7:55 PM 28.4 °F 18.0 °F 26.6 °F 93% 30.14 in 10.0 mi ENE 12.7 mph 20.7 mph N/A   Overcast
8:15 PM 28.4 °F 18.0 °F 26.6 °F 93% 30.15 in 10.0 mi NE 12.7 mph 18.4 mph N/A   Overcast
8:35 PM 28.4 °F 18.0 °F 26.6 °F 93% 30.16 in 10.0 mi NE 12.7 mph - N/A   Overcast
8:55 PM 28.4 °F 18.0 °F 26.6 °F 93% 30.17 in 10.0 mi NE 12.7 mph - N/A   Overcast
9:15 PM 28.4 °F 16.2 °F 26.6 °F 93% 30.17 in 10.0 mi NE 17.3 mph 21.9 mph N/A   Overcast
9:35 PM 26.6 °F 14.7 °F 24.8 °F 93% 30.18 in 10.0 mi NE 15.0 mph - N/A   Overcast
9:55 PM 26.6 °F 14.3 °F 24.8 °F 93% 30.18 in 10.0 mi NE 16.1 mph - N/A   Overcast
10:15 PM 24.8 °F 11.1 °F 24.8 °F 100% 30.18 in 10.0 mi NE 18.4 mph - N/A   Overcast
10:35 PM 24.8 °F 12.4 °F 24.8 °F 100% 30.19 in 10.0 mi NE 15.0 mph 19.6 mph N/A   Overcast
10:55 PM 24.8 °F 11.5 °F 24.8 °F 100% 30.19 in 10.0 mi NE 17.3 mph - N/A   Overcast
11:15 PM 24.8 °F 13.4 °F 24.8 °F 100% 30.19 in 10.0 mi NE 12.7 mph - N/A   Overcast
11:35 PM 26.6 °F 13.8 °F 24.8 °F 93% 30.18 in 10.0 mi NE 17.3 mph - N/A   Overcast
11:55 PM 24.8 °F 12.4 °F 24.8 °F 100% 30.18 in 10.0 mi NE 15.0 mph - N/A   Overcast